Historique des stations

Station météo de Lucay-le-Mâle

Altitude de la station : 128 m







Données météorologiques pour le 02/03/2021
Date
Heure
Températures Humidité Point de rosée Vitesse
du vent
Direction Rafales Windchill Pression Pluviométrie
Cumul
Date
Heure
Températures Humidité Point de rosée Vitesse
du vent
Direction Rafales Windchill Pression Pluviométrie
Cumul
02/03/2021 14:1015.7 °C56 %7.0 °C2 km/hn/a5 km/h15.51027 hPa0.0 mm
02/03/2021 13:4015.7 °C54 %6.4 °C3 km/hn/a5 km/h15.51027 hPa0.0 mm
02/03/2021 13:3015.7 °C56 %6.9 °C3 km/hn/a8 km/h15.51028 hPa0.0 mm
02/03/2021 13:1016.2 °C57 %7.6 °C3 km/hn/a8 km/h16.01028 hPa0.0 mm
02/03/2021 13:0015.5 °C57 %7.0 °C3 km/hn/a6 km/h15.51028 hPa0.0 mm
02/03/2021 12:4015.3 °C61 %7.8 °C2 km/hn/a5 km/h15.51028 hPa0.0 mm
02/03/2021 12:3014.6 °C59 %6.6 °C3 km/hn/a10 km/h14.51028 hPa0.0 mm
02/03/2021 12:1014.1 °C65 %7.6 °C3 km/hn/a8 km/h14.01028 hPa0.0 mm
02/03/2021 12:0013.4 °C64 %6.8 °C3 km/hn/a10 km/h13.51028 hPa0.0 mm
02/03/2021 11:4012.9 °C66 %6.7 °C3 km/hn/a10 km/h13.01028 hPa0.0 mm
02/03/2021 11:3012.6 °C67 %6.6 °C2 km/hn/a6 km/h12.51028 hPa0.0 mm
02/03/2021 11:1011.8 °C69 %6.3 °C3 km/hn/a8 km/h12.01028 hPa0.0 mm
02/03/2021 11:0011.2 °C69 %5.7 °C3 km/hn/a8 km/h11.01028 hPa0.0 mm
02/03/2021 10:4010.7 °C75 %6.5 °C2 km/hn/a6 km/h10.51028 hPa0.0 mm
02/03/2021 10:309.5 °C84 %6.9 °C-n/a2 km/h9.51028 hPa0.0 mm
02/03/2021 10:108.1 °C87 %6.1 °C---8.01028 hPa0.0 mm
02/03/2021 10:006.9 °C93 %5.8 °C-n/a5 km/h7.01028 hPa0.0 mm
02/03/2021 10:006.9 °C93 %5.8 °C-n/a5 km/h7.01028 hPa0.0 mm
02/03/2021 09:304.6 °C94 %3.7 °C---4.51027 hPa0.0 mm
02/03/2021 09:103.6 °C93 %2.6 °C---3.51027 hPa0.0 mm
02/03/2021 09:003.1 °C94 %2.2 °C---3.01027 hPa0.0 mm
02/03/2021 08:402.3 °C93 %1.3 °C---2.51027 hPa0.0 mm
02/03/2021 08:301.9 °C94 %1.0 °C---2.01027 hPa0.0 mm
02/03/2021 08:101.3 °C93 %0.3 °C---1.51027 hPa0.0 mm
02/03/2021 08:001.1 °C93 %0.1 °C---1.01027 hPa0.0 mm
02/03/2021 07:400.7 °C93 %-0.3 °C---0.51027 hPa0.0 mm
02/03/2021 07:300.9 °C93 %-0.1 °C---1.01027 hPa0.0 mm
02/03/2021 07:100.6 °C93 %-0.4 °C---0.51026 hPa0.0 mm
02/03/2021 07:001.1 °C93 %0.1 °C---1.01027 hPa0.0 mm
02/03/2021 06:400.9 °C93 %-0.1 °C---1.01026 hPa0.0 mm
02/03/2021 06:301.2 °C93 %0.2 °C---1.01026 hPa0.0 mm
02/03/2021 06:100.6 °C93 %-0.4 °C---0.51026 hPa0.0 mm
02/03/2021 06:100.6 °C93 %-0.4 °C---0.51026 hPa0.0 mm
02/03/2021 05:400.3 °C92 %-0.9 °C---0.51026 hPa0.0 mm
02/03/2021 05:300.7 °C92 %-0.5 °C---0.51026 hPa0.0 mm
02/03/2021 05:101.2 °C92 %0.1 °C---1.01026 hPa0.0 mm
02/03/2021 05:000.8 °C92 %-0.3 °C---1.01026 hPa0.0 mm
02/03/2021 04:400.7 °C92 %-0.5 °C---0.51026 hPa0.0 mm
02/03/2021 04:300.8 °C92 %-0.3 °C---1.01026 hPa0.0 mm
02/03/2021 04:101.0 °C92 %-0.2 °C---1.01026 hPa0.0 mm
02/03/2021 04:00-------0 hPa0.0 mm
02/03/2021 03:101.2 °C91 %-0.1 °C-n/a2 km/h1.01026 hPa0.0 mm
02/03/2021 03:101.2 °C91 %-0.1 °C-n/a2 km/h1.01026 hPa0.0 mm
02/03/2021 03:101.2 °C91 %-0.1 °C-n/a2 km/h1.01026 hPa0.0 mm
02/03/2021 03:001.6 °C91 %0.3 °C-n/a2 km/h1.51026 hPa0.0 mm
02/03/2021 02:401.6 °C91 %0.3 °C---1.51026 hPa0.0 mm
02/03/2021 02:401.6 °C91 %0.3 °C---1.51026 hPa0.0 mm
02/03/2021 02:102.1 °C91 %0.7 °C-n/a3 km/h2.01026 hPa0.0 mm
02/03/2021 02:002.1 °C90 %0.6 °C---2.01026 hPa0.0 mm
02/03/2021 01:402.1 °C89 %0.5 °C---2.01026 hPa0.0 mm
02/03/2021 01:302.9 °C89 %1.3 °C---3.01026 hPa0.0 mm
02/03/2021 01:10-------0 hPan/a mm
02/03/2021 01:102.4 °C89 %0.8 °C---2.51026 hPa0.0 mm
02/03/2021 01:00-------0 hPan/a mm
02/03/2021 01:003.0 °C89 %1.4 °C---3.01026 hPan/a mm
02/03/2021 00:103.6 °C88 %1.8 °C---3.51025 hPa0.0 mm
02/03/2021 00:003.5 °C89 %1.9 °C---3.51026 hPa0.0 mm


Minima :

Température : 0.3 °C
Humidité : 54 %
Point de rosée : -0.9 °C
Vent moyen : 2 km/h
Windchill : 0.5
Pression atm. : 0 hPa
Maxima :

Température : 16.2 °C
Humidité : 94 %
Point de rosée : 7.8 °C
Vent moyen : 3 km/h
Windchill : 16.0
Pression atm. : 1028 hPa
Rafales max : 10 km/h
Cumul de pluie sur 24H : 0 mm

Lucay-le-Mâle est une commune du département Indre (36).
La station météorologique du réseau de l'association la plus proche de Lucay-le-Mâle est celle de Villegouin



Icône Facebook Association Météo Centre Icône Twitter Association Météo Centre Icône Chaîne Youtube Association Météo Centre Icône contact Association Météo Centre Icône Insta Association Météo Centre